YOU ARE USING AN OUTDATED BROWSER
It is limiting your browsing experience. Please upgrade to a modern browser.

KYLLINI (Port)

Country: Greece Country: Greece (GR)
Latitude / Longitude: 37.93446° / 21.15354° Show on Map Show on Map
Local Time:  1495826202
Un/locode: GRKYL
Expected Arrivals: 16

Vessels in Port


No Records Found

Recent Arrivals & Departures


Vessel Name
Arrival (UTC)
Arrival (LT)
Arrival (MT)
Arrival
Departure (UTC)
Departure (LT)
Departure (MT)
Departure
Vessel Type: Passenger Vessels  NISSOS KEFALONIA 1495817100 1495817100 1495817100 2 hours, 31 minutes ago 1495823040 1495833840 1495823040 52 minutes ago
Vessel Type: Passenger Vessels  FIOR DI LEVANTE 1495818540 1495818540 1495818540 2 hours, 7 minutes ago 1495822260 1495833060 1495822260 1 hour, 5 minutes ago
Vessel Type: Passenger Vessels  ZAKYNTHOS I 1495808940 1495808940 1495808940 4 hours, 47 minutes ago 1495818600 1495829400 1495818600 2 hours, 6 minutes ago
Vessel Type: Passenger Vessels  ANDREAS KALVOS 1495812600 1495812600 1495812600 3 hours, 46 minutes ago 1495815780 1495826580 1495815780 2 hours, 53 minutes ago
Vessel Type: Passenger Vessels  MARE DI LEVANTE 1495813260 1495813260 1495813260 3 hours, 35 minutes ago 1495814940 1495825740 1495814940 3 hours, 7 minutes ago
Vessel Type: Passenger Vessels  MARE DI LEVANTE 1495813260 1495813260 1495813260 3 hours, 35 minutes ago 1495814940 1495825740 1495814940 3 hours, 7 minutes ago
Vessel Type: Passenger Vessels  FIOR DI LEVANTE 1495804140 1495804140 1495804140 6 hours, 7 minutes ago 1495808400 1495819200 1495808400 4 hours, 56 minutes ago
Vessel Type: Passenger Vessels  NISSOS KEFALONIA 1495803120 1495803120 1495803120 6 hours, 24 minutes ago 1495806180 1495816980 1495806180 5 hours, 33 minutes ago
Vessel Type: Passenger Vessels  MARE DI LEVANTE 1495797300 1495797300 1495797300 8 hours, 1 minute ago 1495801680 1495812480 1495801680 6 hours, 48 minutes ago
Vessel Type: Passenger Vessels  ANDREAS KALVOS 1495799040 1495799040 1495799040 7 hours, 32 minutes ago 1495801380 1495812180 1495801380 6 hours, 53 minutes ago

Expected Arrivals


Vessel Name
Scheduled Arrival (UTC)
Scheduled Arrival (LT)
Scheduled Arrival (MT)
Scheduled Arrival
Estimated Arrival (UTC)
Estimated Arrival (LT)
Estimated Arrival (MT)
Estimated Arrival
Vessel Type: Passenger Vessels  NISSOS KEFALONIA 1495854300 1495865100 1495865100 in 7 hours, 48 minutes 1495825920 1495825920 1495825920 4 minutes ago
Vessel Type: Passenger Vessels  FIOR DI LEVANTE 1495855800 1495866600 1495866600 in 8 hours, 13 minutes 1495826760 1495826760 1495826760 in 9 minutes
Vessel Type: Passenger Vessels  ZAKYNTHOS I 1495863000 1495873800 1495873800 in 10 hours, 13 minutes 1495829340 1495829340 1495829340 in 52 minutes
Vessel Type: Passenger Vessels  ANDREAS KALVOS 1495865700 1495876500 1495876500 in 10 hours, 58 minutes 1495827960 1495827960 1495827960 in 29 minutes
Vessel Type: Passenger Vessels  NISSOS KEFALONIA 1495866900 1495877700 1495877700 in 11 hours, 18 minutes 1495882440 1495882440 1495882440 in 15 hours, 37 minutes
Vessel Type: Passenger Vessels  FIOR DI LEVANTE 1495873800 1495884600 1495884600 in 13 hours, 13 minutes 1495878240 1495878240 1495878240 in 14 hours, 27 minutes
Vessel Type: Passenger Vessels  MARE DI LEVANTE 1495877700 1495888500 1495888500 in 14 hours, 18 minutes 1495878480 1495878480 1495878480 in 14 hours, 31 minutes
Vessel Type: Passenger Vessels  ZAKYNTHOS I 1495879200 1495890000 1495890000 in 14 hours, 43 minutes 1495878420 1495878420 1495878420 in 14 hours, 30 minutes
Vessel Type: Passenger Vessels  ANDREAS KALVOS 1495881900 1495892700 1495892700 in 15 hours, 28 minutes 1495890480 1495890480 1495890480 in 17 hours, 51 minutes
Vessel Type: Passenger Vessels  NISSOS KEFALONIA 1495889400 1495900200 1495900200 in 17 hours, 33 minutes 1495914240 1495914240 1495914240 in 1 day

Wind Forecast


    
Time (UTC)
Speed
Direction
Temperature
1495821600 6 knots 303° 18°C
1495832400 8 knots 12° 18°C
1495843200 8 knots 34° 18°C
1495854000 6 knots 50° 18°C
1495864800 4 knots 46° 18°C
1495875600 7 knots 337° 19°C
1495886400 11 knots 320° 20°C
1495897200 14 knots 336° 20°C
1495908000 11 knots 343° 21°C
1495918800 9 knots 349° 21°C
1495929600 8 knots 35° 20°C
1495940400 7 knots 61° 19°C
1495951200 8 knots 76° 20°C
1495962000 9 knots 60° 21°C
1495972800 11 knots 58° 22°C
1495983600 11 knots 57° 22°C
1495994400 10 knots 48° 21°C